Time;durP1;ratioP1;P1;durP2;ratioP2;P2;SDS_P1;SDS_P2;PMS_P1;PMS_P2;Temp;Humidity;BMP_temperature;BMP_pressure;BME280_temperature;BME280_humidity;BME280_pressure;Samples;Min_cycle;Max_cycle;Signal;HPM_P1;HPM_P2
2022/10/16 00:00:40;;;;;;;44.35;17.55;;;15.30;99.90;;;;;;5032517;28;20052;-64
2022/10/16 00:03:46;;;;;;;24.77;15.05;;;14.90;99.90;;;;;;5032603;28;20060;-64
2022/10/16 00:06:50;;;;;;;23.42;13.73;;;14.80;99.90;;;;;;5032662;28;20064;-64
2022/10/16 00:09:54;;;;;;;25.58;14.80;;;14.80;99.90;;;;;;5032301;28;20471;-65
2022/10/16 00:12:58;;;;;;;27.83;14.63;;;14.70;99.90;;;;;;5032561;28;20045;-65
2022/10/16 00:16:03;;;;;;;21.23;13.10;;;14.70;99.90;;;;;;5032316;28;20044;-65
2022/10/16 00:19:08;;;;;;;33.45;18.88;;;14.70;99.90;;;;;;5032310;28;20660;-65
2022/10/16 00:22:12;;;;;;;41.25;16.95;;;14.70;99.90;;;;;;5020176;28;20045;-65
2022/10/16 00:25:27;;;;;;;25.23;14.85;;;14.60;99.90;;;;;;5031828;28;20507;-65
2022/10/16 00:28:31;;;;;;;28.52;16.83;;;14.60;99.90;;;;;;5032216;28;20048;-64
2022/10/16 00:31:35;;;;;;;92.22;21.02;;;14.60;99.90;;;;;;5031917;28;20040;-65
2022/10/16 00:34:39;;;;;;;189.13;25.42;;;14.60;99.90;;;;;;5031915;28;20041;-65
2022/10/16 00:37:43;;;;;;;368.02;31.48;;;14.60;99.90;;;;;;5032053;28;20048;-65
2022/10/16 00:40:48;;;;;;;212.38;25.35;;;14.60;99.90;;;;;;5031957;28;20057;-64
2022/10/16 00:43:53;;;;;;;150.15;21.80;;;14.70;99.90;;;;;;5031558;28;20041;-64
2022/10/16 00:46:58;;;;;;;114.68;21.60;;;14.60;99.90;;;;;;5031718;28;20504;-65
2022/10/16 00:50:11;;;;;;;98.82;23.23;;;14.60;99.90;;;;;;5031267;28;20048;-65
2022/10/16 00:53:17;;;;;;;60.15;20.23;;;14.60;99.90;;;;;;5031672;28;20041;-65
2022/10/16 00:56:21;;;;;;;26.80;17.92;;;14.50;99.90;;;;;;5031562;28;20041;-65
2022/10/16 00:59:32;;;;;;;31.65;18.38;;;14.50;99.90;;;;;;5031706;28;20377;-64
2022/10/16 01:02:36;;;;;;;29.55;17.80;;;14.50;99.90;;;;;;5031733;28;20045;-64
2022/10/16 01:05:50;;;;;;;27.88;18.02;;;14.50;99.90;;;;;;5031341;28;20052;-65
2022/10/16 01:09:06;;;;;;;26.63;16.83;;;14.60;99.90;;;;;;5032034;28;20397;-64
2022/10/16 01:12:12;;;;;;;30.70;18.58;;;14.60;99.90;;;;;;5031329;28;20056;-65
2022/10/16 01:15:45;;;;;;;34.47;18.13;;;14.70;99.90;;;;;;5031135;28;20040;-64
2022/10/16 01:18:57;;;;;;;29.83;16.77;;;14.70;99.90;;;;;;5031443;28;20044;-65
2022/10/16 01:22:04;;;;;;;29.27;17.80;;;14.70;99.90;;;;;;5031134;28;20041;-64
2022/10/16 01:25:16;;;;;;;28.75;16.70;;;14.70;99.90;;;;;;5031017;28;20060;-65
2022/10/16 01:28:23;;;;;;;23.85;15.60;;;14.70;99.90;;;;;;5031422;28;20123;-65
2022/10/16 01:31:32;;;;;;;21.65;15.07;;;14.70;99.90;;;;;;5031085;28;20044;-64
2022/10/16 01:35:10;;;;;;;28.73;15.00;;;14.80;99.90;;;;;;5030941;28;20045;-64
2022/10/16 01:38:31;;;;;;;23.10;13.52;;;14.80;99.90;;;;;;5026871;28;20056;-65
2022/10/16 01:41:41;;;;;;;24.00;14.63;;;14.80;99.90;;;;;;5031312;28;20060;-65
2022/10/16 01:44:47;;;;;;;24.65;14.35;;;14.80;99.90;;;;;;5030986;28;20052;-65
2022/10/16 01:47:53;;;;;;;21.65;14.32;;;14.90;99.90;;;;;;5031040;28;20036;-64
2022/10/16 01:51:04;;;;;;;24.80;14.65;;;14.90;99.90;;;;;;5030918;28;20400;-65
2022/10/16 01:54:09;;;;;;;24.02;13.52;;;14.90;99.90;;;;;;5030676;28;20515;-64
2022/10/16 01:57:15;;;;;;;23.50;13.40;;;14.80;99.90;;;;;;5031232;28;20045;-64
2022/10/16 02:00:21;;;;;;;20.23;12.68;;;14.80;99.90;;;;;;5030949;28;20056;-64
2022/10/16 02:03:26;;;;;;;22.05;12.20;;;14.90;99.90;;;;;;5034197;28;20044;-65
2022/10/16 02:06:30;;;;;;;18.02;11.80;;;14.80;99.90;;;;;;5035008;28;20495;-65
2022/10/16 02:09:35;;;;;;;18.67;11.30;;;14.90;99.90;;;;;;5034296;28;20048;-64
2022/10/16 02:12:43;;;;;;;20.90;11.38;;;14.80;99.90;;;;;;5034530;28;20044;-64
2022/10/16 02:15:47;;;;;;;16.42;10.52;;;14.80;99.90;;;;;;5034329;28;20397;-64
2022/10/16 02:18:50;;;;;;;29.75;14.50;;;14.70;99.90;;;;;;5034743;28;20052;-65
2022/10/16 02:22:03;;;;;;;29.65;17.25;;;14.40;99.90;;;;;;5035092;28;20377;-64
2022/10/16 02:25:35;;;;;;;27.38;16.05;;;14.40;99.90;;;;;;5034333;28;20056;-64
2022/10/16 02:28:48;;;;;;;21.13;14.52;;;14.30;99.90;;;;;;5034594;28;20514;-64
2022/10/16 02:32:04;;;;;;;20.85;13.52;;;14.20;99.90;;;;;;5034500;28;20507;-64
2022/10/16 02:35:09;;;;;;;20.65;13.40;;;14.20;99.90;;;;;;5033822;28;20036;-65
2022/10/16 02:38:13;;;;;;;22.08;14.13;;;14.20;99.90;;;;;;5034310;28;20045;-64
2022/10/16 02:41:21;;;;;;;22.23;14.50;;;14.20;99.90;;;;;;5034160;28;20052;-65
2022/10/16 02:44:25;;;;;;;28.02;15.57;;;14.20;99.90;;;;;;5034154;28;20380;-64
2022/10/16 02:47:29;;;;;;;28.08;15.35;;;14.10;99.90;;;;;;5034263;28;20053;-64
2022/10/16 02:50:33;;;;;;;24.27;14.52;;;13.70;99.90;;;;;;5032839;28;20044;-65
2022/10/16 02:53:37;;;;;;;24.45;15.00;;;14.00;99.90;;;;;;5033662;28;20036;-64
2022/10/16 02:56:41;;;;;;;25.15;15.55;;;14.10;99.90;;;;;;5033958;28;20040;-64
2022/10/16 02:59:45;;;;;;;24.48;13.52;;;14.00;99.90;;;;;;5033913;28;20048;-64
2022/10/16 03:02:49;;;;;;;21.30;12.40;;;14.00;99.90;;;;;;5033967;28;20385;-64
2022/10/16 03:05:53;;;;;;;26.05;15.38;;;13.90;99.90;;;;;;5033742;28;20048;-64
2022/10/16 03:08:57;;;;;;;30.48;16.33;;;13.90;99.90;;;;;;5033806;28;20056;-64
2022/10/16 03:12:01;;;;;;;33.15;16.73;;;13.90;99.90;;;;;;5021409;28;20499;-64
2022/10/16 03:15:06;;;;;;;31.25;19.10;;;13.90;99.90;;;;;;5033179;28;20040;-64
2022/10/16 03:18:10;;;;;;;30.58;18.65;;;13.90;99.90;;;;;;5033422;28;20048;-64
2022/10/16 03:21:14;;;;;;;26.00;15.82;;;13.90;99.90;;;;;;5033613;28;20120;-64
2022/10/16 03:24:18;;;;;;;29.52;17.75;;;13.90;99.90;;;;;;5033255;28;20056;-64
2022/10/16 03:27:22;;;;;;;30.95;18.80;;;13.90;99.90;;;;;;5033404;28;20065;-64
2022/10/16 03:30:27;;;;;;;27.17;15.70;;;13.90;99.90;;;;;;5033243;28;20044;-64
2022/10/16 03:33:31;;;;;;;27.88;16.83;;;13.90;99.90;;;;;;5033091;28;20052;-64
2022/10/16 03:36:35;;;;;;;30.88;18.17;;;13.90;99.90;;;;;;5033081;28;20044;-64
2022/10/16 03:39:38;;;;;;;40.47;23.33;;;13.90;99.90;;;;;;5033177;28;20044;-65
2022/10/16 03:42:43;;;;;;;39.75;21.25;;;13.90;99.90;;;;;;5033087;28;20060;-64
2022/10/16 03:45:47;;;;;;;213.23;26.08;;;13.90;99.90;;;;;;5033087;28;20064;-64
2022/10/16 03:48:51;;;;;;;97.28;21.77;;;13.80;99.90;;;;;;5033242;28;20040;-65
2022/10/16 03:51:55;;;;;;;85.85;21.05;;;13.70;99.90;;;;;;5032316;28;20064;-64
2022/10/16 03:54:58;;;;;;;43.50;19.42;;;13.60;99.90;;;;;;5032884;28;20392;-64
2022/10/16 03:58:03;;;;;;;30.52;18.95;;;13.60;99.90;;;;;;5032630;28;20048;-64
2022/10/16 04:01:07;;;;;;;28.33;18.10;;;13.60;99.90;;;;;;5032553;28;20117;-64
2022/10/16 04:04:11;;;;;;;31.30;17.48;;;13.50;99.90;;;;;;5032559;28;20352;-63
2022/10/16 04:07:15;;;;;;;25.50;16.70;;;13.50;99.90;;;;;;5032631;28;20440;-64
2022/10/16 04:10:20;;;;;;;28.33;15.88;;;13.50;99.90;;;;;;5032332;28;20124;-63
2022/10/16 04:13:24;;;;;;;27.08;15.98;;;13.50;99.90;;;;;;5032400;28;20052;-64
2022/10/16 04:16:27;;;;;;;28.73;16.35;;;13.50;99.90;;;;;;5032098;28;20048;-64
2022/10/16 04:19:31;;;;;;;28.23;15.85;;;13.50;99.90;;;;;;5032489;28;20049;-63
2022/10/16 04:22:36;;;;;;;29.02;14.50;;;13.60;99.90;;;;;;5032333;28;20049;-64
2022/10/16 04:25:40;;;;;;;25.10;13.05;;;13.60;99.90;;;;;;5019641;28;20036;-63
2022/10/16 04:28:44;;;;;;;31.58;16.40;;;13.70;99.90;;;;;;5032283;28;20041;-64
2022/10/16 04:31:48;;;;;;;46.85;20.17;;;13.70;99.90;;;;;;5031251;28;20048;-64
2022/10/16 04:34:52;;;;;;;290.15;28.40;;;13.70;99.90;;;;;;5031676;28;20048;-64
2022/10/16 04:37:58;;;;;;;35.17;16.70;;;13.70;99.90;;;;;;5032000;28;20516;-64
2022/10/16 04:41:02;;;;;;;36.13;18.55;;;13.50;99.90;;;;;;5031578;28;20048;-64
2022/10/16 04:44:06;;;;;;;36.00;17.00;;;13.40;99.90;;;;;;5032116;28;20060;-64
2022/10/16 04:47:10;;;;;;;42.20;14.82;;;13.40;99.90;;;;;;5031618;28;20060;-64
2022/10/16 04:50:14;;;;;;;96.85;19.25;;;13.40;99.90;;;;;;5031927;28;20041;-64
2022/10/16 04:53:18;;;;;;;58.88;20.85;;;13.40;99.90;;;;;;5031652;28;20048;-64
2022/10/16 04:56:22;;;;;;;44.78;18.88;;;13.30;99.90;;;;;;5031775;28;20048;-64
2022/10/16 04:59:27;;;;;;;28.13;13.55;;;13.30;99.90;;;;;;5031759;28;20036;-63
2022/10/16 05:02:31;;;;;;;129.57;18.10;;;13.20;99.90;;;;;;5031429;28;20044;-63
2022/10/16 05:05:35;;;;;;;204.68;20.23;;;13.10;99.90;;;;;;5031557;28;20060;-63
2022/10/16 05:08:40;;;;;;;83.80;15.07;;;12.80;99.90;;;;;;5031570;28;20049;-63
2022/10/16 05:11:44;;;;;;;88.97;14.57;;;12.60;99.90;;;;;;5031259;28;20525;-63
2022/10/16 05:14:48;;;;;;;64.35;13.00;;;12.50;99.90;;;;;;5031395;28;20064;-63
2022/10/16 05:17:56;;;;;;;91.80;13.23;;;12.40;99.90;;;;;;5031964;28;20037;-63
2022/10/16 05:20:59;;;;;;;82.75;11.93;;;12.40;99.90;;;;;;5031365;28;20041;-63
2022/10/16 05:24:03;;;;;;;49.33;13.55;;;12.30;99.90;;;;;;5030893;28;20049;-63
2022/10/16 05:27:07;;;;;;;30.33;13.30;;;12.30;99.90;;;;;;5031507;28;20061;-63
2022/10/16 05:30:11;;;;;;;32.70;12.00;;;12.30;99.90;;;;;;5031102;28;20056;-63
2022/10/16 05:33:15;;;;;;;19.30;11.70;;;12.30;99.90;;;;;;5031006;28;20056;-63
2022/10/16 05:36:19;;;;;;;19.40;11.30;;;12.30;99.90;;;;;;5031459;28;20535;-64
2022/10/16 05:39:23;;;;;;;15.75;10.63;;;12.20;99.90;;;;;;5035391;28;20068;-63
2022/10/16 05:42:27;;;;;;;25.30;12.82;;;12.10;99.90;;;;;;5035448;28;20052;-63
2022/10/16 05:45:31;;;;;;;51.45;12.30;;;12.10;99.90;;;;;;5034982;28;20364;-63
2022/10/16 05:48:35;;;;;;;31.10;11.23;;;12.00;99.90;;;;;;5035300;28;20048;-64
2022/10/16 05:51:39;;;;;;;71.25;10.90;;;12.10;99.90;;;;;;5035037;28;20440;-63
2022/10/16 05:54:44;;;;;;;68.75;9.40;;;12.10;99.90;;;;;;5035043;28;20049;-63
2022/10/16 05:57:48;;;;;;;83.53;9.25;;;12.20;99.90;;;;;;5034861;28;20503;-62
2022/10/16 06:01:04;;;;;;;33.00;8.30;;;12.20;99.90;;;;;;5034850;28;20045;-63
2022/10/16 06:04:09;;;;;;;47.70;9.02;;;12.40;99.90;;;;;;5034652;28;20049;-63
2022/10/16 06:07:13;;;;;;;50.03;10.15;;;12.50;99.90;;;;;;5034632;28;20070;-63
2022/10/16 06:10:17;;;;;;;21.95;9.88;;;12.60;99.90;;;;;;5034899;28;20052;-63
2022/10/16 06:13:21;;;;;;;39.45;10.38;;;13.30;99.90;;;;;;5034295;28;20060;-63
2022/10/16 06:16:26;;;;;;;30.40;10.32;;;13.30;99.90;;;;;;5034952;28;20381;-63
2022/10/16 06:19:31;;;;;;;27.38;8.45;;;13.70;99.90;;;;;;5034795;28;20056;-63
2022/10/16 06:22:36;;;;;;;16.05;8.52;;;14.10;99.90;;;;;;5034560;28;20538;-63
2022/10/16 06:25:40;;;;;;;27.85;8.18;;;14.30;99.90;;;;;;5034445;28;20045;-63
2022/10/16 06:28:44;;;;;;;23.00;7.80;;;14.60;99.90;;;;;;5034546;28;20495;-64
2022/10/16 06:31:47;;;;;;;43.88;8.48;;;14.70;99.90;;;;;;5034157;28;20064;-64
2022/10/16 06:34:51;;;;;;;73.82;8.70;;;14.60;99.90;;;;;;5034405;28;20492;-64
2022/10/16 06:37:57;;;;;;;35.47;6.65;;;14.50;99.90;;;;;;5034451;28;20354;-63
2022/10/16 06:41:01;;;;;;;114.57;9.82;;;14.80;99.90;;;;;;5034333;28;20496;-63
2022/10/16 06:44:07;;;;;;;68.57;7.57;;;15.40;99.90;;;;;;5033979;28;20511;-63
2022/10/16 06:47:11;;;;;;;90.38;7.45;;;16.00;99.90;;;;;;5033756;28;20048;-63
2022/10/16 06:50:16;;;;;;;148.52;8.38;;;16.40;99.90;;;;;;5033983;28;20056;-63
2022/10/16 06:53:20;;;;;;;183.50;10.48;;;16.60;99.90;;;;;;5033893;28;20060;-63
2022/10/16 06:56:26;;;;;;;211.23;11.77;;;16.30;99.90;;;;;;5034107;28;20389;-64
2022/10/16 06:59:30;;;;;;;96.93;6.85;;;16.10;99.90;;;;;;5033826;28;20040;-63
2022/10/16 07:02:34;;;;;;;125.97;8.70;;;16.40;99.90;;;;;;5033569;28;20116;-63
2022/10/16 07:05:42;;;;;;;39.53;5.40;;;17.30;99.90;;;;;;5033955;28;20145;-63
2022/10/16 07:08:48;;;;;;;53.00;5.75;;;17.30;99.90;;;;;;5033918;28;20045;-64
2022/10/16 07:11:51;;;;;;;42.60;4.68;;;18.40;99.90;;;;;;5033584;28;20048;-64
2022/10/16 07:14:56;;;;;;;5.82;3.92;;;20.00;99.90;;;;;;5034259;28;20041;-64
2022/10/16 07:18:00;;;;;;;26.35;4.03;;;21.40;99.90;;;;;;5021170;28;20511;-63
2022/10/16 07:21:07;;;;;;;6.22;2.83;;;22.80;99.90;;;;;;5033362;28;20052;-64
2022/10/16 07:24:15;;;;;;;8.55;3.20;;;24.00;99.90;;;;;;5033452;28;20049;-64
2022/10/16 07:27:22;;;;;;;5.32;3.17;;;25.40;99.90;;;;;;5033261;28;20048;-64
2022/10/16 07:30:25;;;;;;;4.53;3.67;;;27.30;99.90;;;;;;5033492;28;20056;-64
2022/10/16 07:33:30;;;;;;;4.90;3.67;;;26.90;99.90;;;;;;5033177;28;20044;-64
2022/10/16 07:36:34;;;;;;;24.15;4.32;;;23.80;99.90;;;;;;5033473;28;20037;-65
2022/10/16 07:39:38;;;;;;;43.90;5.60;;;23.90;99.90;;;;;;5033252;28;20037;-64
2022/10/16 07:42:42;;;;;;;12.80;3.85;;;24.80;99.90;;;;;;5033293;28;20044;-64
2022/10/16 07:45:50;;;;;;;7.63;4.60;;;25.60;99.90;;;;;;5032990;28;20041;-65
2022/10/16 07:48:54;;;;;;;28.52;5.88;;;25.90;99.90;;;;;;5033109;28;20048;-64
2022/10/16 07:51:58;;;;;;;12.40;5.20;;;24.80;99.90;;;;;;5032862;28;20048;-64
2022/10/16 07:55:03;;;;;;;26.52;6.05;;;24.80;99.90;;;;;;5020435;28;20053;-65
2022/10/16 07:58:07;;;;;;;45.42;6.75;;;25.40;99.90;;;;;;5033174;28;20052;-64
2022/10/16 08:01:13;;;;;;;41.13;5.80;;;24.60;99.90;;;;;;5032363;28;20401;-65
2022/10/16 08:04:17;;;;;;;12.98;4.95;;;25.20;99.90;;;;;;5032691;28;20040;-64
2022/10/16 08:07:21;;;;;;;21.25;5.63;;;25.10;99.90;;;;;;5032742;28;20048;-64
2022/10/16 08:10:27;;;;;;;8.40;5.10;;;24.80;99.90;;;;;;5032408;28;20397;-65
2022/10/16 08:13:32;;;;;;;6.00;4.88;;;26.00;99.90;;;;;;5031971;28;20052;-65
2022/10/16 08:16:36;;;;;;;5.45;4.10;;;28.20;99.90;;;;;;5032757;28;20036;-65
2022/10/16 08:19:44;;;;;;;6.95;4.55;;;29.70;99.90;;;;;;5031938;28;20048;-65
2022/10/16 08:22:48;;;;;;;4.78;4.05;;;30.50;98.60;;;;;;5032522;28;20420;-65
2022/10/16 08:25:56;;;;;;;7.13;4.25;;;29.80;98.30;;;;;;5032083;28;20503;-65
2022/10/16 08:29:00;;;;;;;6.72;4.22;;;31.30;97.40;;;;;;5031997;28;20060;-65
2022/10/16 08:32:04;;;;;;;6.63;4.43;;;31.50;95.80;;;;;;5031862;28;20423;-65
2022/10/16 08:35:12;;;;;;;8.00;3.95;;;32.40;95.10;;;;;;5031927;28;20040;-65
2022/10/16 08:38:16;;;;;;;5.28;3.55;;;31.80;95.10;;;;;;5032578;28;20041;-65
2022/10/16 08:41:45;;;;;;;6.28;3.70;;;33.50;94.20;;;;;;5032146;28;20060;-65
2022/10/16 08:45:08;;;;;;;7.20;4.32;;;32.10;94.00;;;;;;5031580;28;20036;-66
2022/10/16 08:48:50;;;;;;;7.60;4.57;;;30.20;95.20;;;;;;5031957;28;20389;-65
2022/10/16 08:51:57;;;;;;;6.13;4.50;;;28.90;96.70;;;;;;5031790;28;20400;-65
2022/10/16 08:55:02;;;;;;;6.63;4.07;;;30.00;96.00;;;;;;5013419;28;20099;-65
2022/10/16 08:58:14;;;;;;;9.68;4.50;;;30.10;96.40;;;;;;5031926;28;20048;-66
2022/10/16 09:01:22;;;;;;;9.18;4.78;;;28.80;96.90;;;;;;5031507;28;20052;-66
2022/10/16 09:04:49;;;;;;;7.47;4.05;;;26.60;99.00;;;;;;5031648;28;20598;-65
2022/10/16 09:07:55;;;;;;;5.72;4.43;;;28.10;98.40;;;;;;5034525;28;20044;-65
2022/10/16 09:11:16;;;;;;;8.45;6.18;;;27.60;98.00;;;;;;5031218;28;20068;-66
2022/10/16 09:14:58;;;;;;;13.13;6.80;;;30.10;96.30;;;;;;5031668;28;20519;-66
2022/10/16 09:18:09;;;;;;;8.10;5.00;;;28.90;96.60;;;;;;4995838;28;20044;-66
2022/10/16 09:21:29;;;;;;;5.82;3.90;;;30.80;95.10;;;;;;5031289;28;20048;-66
2022/10/16 09:24:34;;;;;;;6.20;4.28;;;33.00;93.60;;;;;;5031510;28;20044;-66
2022/10/16 09:27:38;;;;;;;5.95;3.60;;;33.70;92.40;;;;;;5031164;28;20504;-66
2022/10/16 09:30:43;;;;;;;6.95;4.10;;;35.10;91.20;;;;;;5031190;28;20045;-65
2022/10/16 09:33:55;;;;;;;5.63;4.88;;;37.50;89.80;;;;;;5031222;28;20044;-67
2022/10/16 09:37:03;;;;;;;6.22;4.72;;;39.40;85.00;;;;;;5031458;28;20048;-64
2022/10/16 09:40:12;;;;;;;5.97;4.60;;;37.70;83.40;;;;;;5031392;28;20048;-66
2022/10/16 09:43:21;;;;;;;6.63;3.70;;;38.80;83.00;;;;;;5031083;28;20048;-65
2022/10/16 09:46:37;;;;;;;7.05;4.90;;;40.20;80.20;;;;;;5031218;28;20052;-66
2022/10/16 09:49:56;;;;;;;9.98;5.05;;;35.10;81.40;;;;;;5031281;28;20049;-66
2022/10/16 09:53:13;;;;;;;8.13;5.10;;;34.80;86.50;;;;;;5031161;28;20037;-66
2022/10/16 09:56:27;;;;;;;9.40;6.35;;;34.30;86.00;;;;;;5031237;28;20036;-65
2022/10/16 09:59:31;;;;;;;7.40;5.18;;;35.40;85.10;;;;;;5030805;28;20392;-65
2022/10/16 10:02:40;;;;;;;7.00;4.28;;;37.30;84.00;;;;;;5031253;28;20048;-66
2022/10/16 10:05:49;;;;;;;5.40;4.20;;;36.00;82.60;;;;;;5031261;28;20045;-66
2022/10/16 10:09:00;;;;;;;3.92;3.15;;;35.00;82.50;;;;;;5031284;28;20504;-66
2022/10/16 10:12:06;;;;;;;5.88;3.50;;;36.80;83.60;;;;;;5030661;28;20385;-66
2022/10/16 10:15:19;;;;;;;7.13;3.30;;;38.80;81.70;;;;;;5030727;28;20252;-65
2022/10/16 10:18:23;;;;;;;5.45;3.47;;;39.70;79.50;;;;;;5030904;28;20036;-66
2022/10/16 10:21:27;;;;;;;7.85;3.97;;;39.60;78.50;;;;;;5031086;28;20049;-67
2022/10/16 10:24:32;;;;;;;5.95;3.38;;;37.70;77.20;;;;;;5034232;28;20494;-66
2022/10/16 10:27:50;;;;;;;5.18;3.25;;;37.80;78.90;;;;;;5035033;28;20040;-67
2022/10/16 10:31:11;;;;;;;;;;;37.70;79.00;;;;;;5034666;28;20384;-66
2022/10/16 10:34:52;;;;;;;5.75;3.22;;;36.90;79.60;;;;;;5034493;28;19920;-66
2022/10/16 10:38:12;;;;;;;6.18;2.60;;;38.20;79.20;;;;;;4977431;28;20510;-66
2022/10/16 10:41:54;;;;;;;7.73;3.30;;;38.90;77.00;;;;;;5034353;28;20049;-67
2022/10/16 10:45:04;;;;;;;5.50;2.85;;;37.00;78.00;;;;;;5034453;28;20295;-66
2022/10/16 10:48:34;;;;;;;;;;;38.90;77.00;;;;;;5034851;28;20036;-66
2022/10/16 10:51:50;;;;;;;;;;;39.50;76.20;;;;;;5034826;28;19944;-66
2022/10/16 10:54:59;;;;;;;5.65;2.95;;;39.60;75.90;;;;;;5021668;28;19916;-67
2022/10/16 10:58:26;;;;;;;6.50;2.95;;;37.30;77.80;;;;;;5034157;28;20064;-66
2022/10/16 11:01:47;;;;;;;4.97;2.55;;;37.50;77.40;;;;;;5036149;28;20056;-66
2022/10/16 11:04:57;;;;;;;5.72;2.95;;;37.20;77.30;;;;;;5033851;28;20499;-66
2022/10/16 11:08:18;;;;;;;3.92;2.63;;;33.90;81.30;;;;;;5033978;28;20036;-66
2022/10/16 11:11:38;;;;;;;4.47;3.20;;;36.30;78.80;;;;;;5033654;28;20056;-66
2022/10/16 11:15:01;;;;;;;3.72;2.35;;;35.50;78.70;;;;;;5033689;28;20044;-67
2022/10/16 11:18:21;;;;;;;4.85;2.28;;;36.80;77.90;;;;;;5033701;28;20468;-66
2022/10/16 11:21:27;;;;;;;2.25;1.70;;;39.20;75.60;;;;;;5033812;28;20060;-67
2022/10/16 11:24:31;;;;;;;5.10;2.30;;;40.80;72.40;;;;;;5033747;28;20044;-66
2022/10/16 11:27:41;;;;;;;4.88;2.40;;;40.20;72.40;;;;;;5033755;28;20049;-66
2022/10/16 11:30:54;;;;;;;6.70;2.33;;;39.60;74.10;;;;;;5033275;28;20044;-67
2022/10/16 11:34:27;;;;;;;2.78;2.00;;;37.70;74.60;;;;;;5032274;28;20037;-66
2022/10/16 11:37:36;;;;;;;6.28;2.55;;;38.60;74.00;;;;;;5033301;28;20049;-66
2022/10/16 11:40:43;;;;;;;5.28;2.50;;;37.80;75.10;;;;;;5032880;28;20124;-66
2022/10/16 11:44:19;;;;;;;7.20;2.42;;;33.60;77.60;;;;;;5032728;28;20052;-66
2022/10/16 11:47:31;;;;;;;5.63;2.42;;;33.10;78.80;;;;;;5032892;28;20044;-67
2022/10/16 11:50:52;;;;;;;3.65;1.98;;;35.40;78.80;;;;;;5033052;28;20491;-66
2022/10/16 11:54:21;;;;;;;4.88;2.10;;;38.40;75.70;;;;;;5032934;28;20048;-66
2022/10/16 11:57:34;;;;;;;5.90;2.13;;;36.70;75.10;;;;;;5032925;28;20503;-66
2022/10/16 12:00:47;;;;;;;4.55;2.20;;;37.60;76.50;;;;;;5032732;28;20041;-66
2022/10/16 12:04:16;;;;;;;2.50;1.90;;;38.80;75.40;;;;;;5032543;28;20044;-66
2022/10/16 12:07:29;;;;;;;4.35;1.92;;;38.30;73.90;;;;;;5032857;28;20428;-66
2022/10/16 12:10:37;;;;;;;3.40;1.40;;;37.30;74.30;;;;;;5032940;28;20048;-66
2022/10/16 12:13:42;;;;;;;4.22;1.88;;;37.80;72.40;;;;;;5032628;28;20527;-67
2022/10/16 12:16:54;;;;;;;4.65;1.88;;;37.70;72.90;;;;;;5032694;28;20064;-66
2022/10/16 12:20:21;;;;;;;2.65;1.58;;;38.40;73.60;;;;;;5032672;28;20044;-66
2022/10/16 12:23:25;;;;;;;2.83;1.48;;;38.80;72.60;;;;;;5032808;28;20045;-66
2022/10/16 12:26:32;;;;;;;2.13;1.30;;;38.80;72.20;;;;;;5032539;28;20507;-66
2022/10/16 12:29:42;;;;;;;2.78;1.30;;;39.80;71.10;;;;;;5032373;28;20048;-65
2022/10/16 12:32:58;;;;;;;4.32;1.52;;;41.50;69.60;;;;;;5031736;28;20044;-65
2022/10/16 12:36:10;;;;;;;2.40;1.45;;;42.90;68.50;;;;;;5031852;28;20044;-65
2022/10/16 12:39:23;;;;;;;4.05;1.40;;;43.80;67.30;;;;;;5030981;28;20527;-65
2022/10/16 12:42:28;;;;;;;4.18;1.30;;;42.00;67.00;;;;;;5032056;28;20039;-65
2022/10/16 12:45:34;;;;;;;3.15;1.25;;;41.20;66.80;;;;;;5031487;28;20053;-67
2022/10/16 12:48:40;;;;;;;1.98;1.15;;;40.50;67.10;;;;;;5032200;28;20054;-66
2022/10/16 12:51:44;;;;;;;2.25;1.30;;;40.50;67.80;;;;;;5031917;28;20052;-66
2022/10/16 12:54:48;;;;;;;3.38;1.27;;;40.70;67.00;;;;;;5032008;28;20044;-66
2022/10/16 12:57:52;;;;;;;1.27;1.13;;;38.10;68.50;;;;;;5031479;28;20049;-66
2022/10/16 13:01:02;;;;;;;2.75;1.30;;;39.70;67.90;;;;;;5031899;28;20037;-64
2022/10/16 13:04:43;;;;;;;3.35;1.35;;;40.50;66.70;;;;;;5031595;28;20048;-65
2022/10/16 13:08:03;;;;;;;2.50;1.73;;;40.60;66.70;;;;;;5031580;28;20040;-65
2022/10/16 13:11:53;;;;;;;5.90;1.17;;;41.50;66.70;;;;;;5031642;28;20495;-64
2022/10/16 13:15:19;;;;;;;;;;;42.10;66.90;;;;;;5031714;28;20044;-64
2022/10/16 13:18:30;;;;;;;2.47;1.50;;;38.80;67.10;;;;;;5019128;28;19916;-66
2022/10/16 13:21:54;;;;;;;3.13;1.30;;;36.30;69.20;;;;;;5031466;28;20044;-65
2022/10/16 13:25:43;;;;;;;4.80;1.50;;;34.90;71.60;;;;;;5031531;28;20036;-66
2022/10/16 13:28:47;;;;;;;4.50;1.50;;;33.20;71.90;;;;;;5031451;28;20053;-65
2022/10/16 13:31:51;;;;;;;2.75;1.30;;;34.90;73.50;;;;;;5030746;28;20049;-67
2022/10/16 13:34:55;;;;;;;2.53;1.60;;;36.60;72.50;;;;;;5031479;28;20052;-67
2022/10/16 13:38:17;;;;;;;4.82;1.60;;;35.50;71.20;;;;;;5031358;28;20049;-66
2022/10/16 13:41:21;;;;;;;3.33;1.50;;;36.40;71.90;;;;;;5031333;28;20045;-66
2022/10/16 13:44:26;;;;;;;5.22;1.83;;;35.60;72.10;;;;;;5019038;28;20052;-66
2022/10/16 13:47:29;;;;;;;3.70;1.25;;;36.50;71.80;;;;;;5031445;28;20045;-67
2022/10/16 13:50:33;;;;;;;3.67;1.40;;;36.90;71.00;;;;;;5031456;28;20046;-66
2022/10/16 13:53:38;;;;;;;4.30;1.90;;;36.40;70.60;;;;;;5031103;28;20492;-67
2022/10/16 13:56:41;;;;;;;2.95;1.40;;;36.50;70.30;;;;;;5031685;28;20361;-66
2022/10/16 13:59:46;;;;;;;2.65;1.42;;;36.70;71.00;;;;;;5034977;28;20040;-66
2022/10/16 14:02:57;;;;;;;1.92;1.20;;;37.20;70.60;;;;;;5035402;28;20408;-66
2022/10/16 14:06:04;;;;;;;4.05;2.13;;;33.30;72.10;;;;;;5034901;28;20068;-66
2022/10/16 14:09:29;;;;;;;2.17;1.50;;;32.60;75.60;;;;;;5035077;28;20044;-66
2022/10/16 14:12:34;;;;;;;3.47;1.75;;;33.00;75.90;;;;;;5034728;28;20057;-66
2022/10/16 14:15:38;;;;;;;6.70;1.70;;;33.90;75.80;;;;;;5034746;28;20052;-65
2022/10/16 14:18:50;;;;;;;3.78;1.77;;;31.00;77.40;;;;;;5034828;28;20387;-65
2022/10/16 14:21:55;;;;;;;6.65;1.80;;;30.90;78.00;;;;;;5034851;28;20527;-66
2022/10/16 14:25:00;;;;;;;6.03;1.98;;;29.40;81.10;;;;;;5034507;28;20250;-64
2022/10/16 14:28:05;;;;;;;6.75;2.65;;;27.80;84.40;;;;;;5034614;28;20044;-65
2022/10/16 14:31:28;;;;;;;4.00;2.47;;;27.50;86.80;;;;;;5033975;28;20049;-65
2022/10/16 14:34:33;;;;;;;7.30;2.45;;;27.10;88.50;;;;;;5034275;28;20071;-65
2022/10/16 14:37:38;;;;;;;6.20;2.25;;;26.90;88.50;;;;;;5034211;28;20498;-65
2022/10/16 14:40:48;;;;;;;5.10;2.13;;;26.70;89.70;;;;;;5034001;28;20040;-64
2022/10/16 14:43:55;;;;;;;5.95;2.47;;;26.50;90.20;;;;;;5034044;28;20395;-65
2022/10/16 14:47:08;;;;;;;5.03;2.33;;;26.50;90.50;;;;;;5034164;28;20049;-65
2022/10/16 14:50:12;;;;;;;7.88;2.83;;;26.40;91.60;;;;;;5034128;28;20056;-65
2022/10/16 14:53:16;;;;;;;5.43;2.33;;;26.20;92.20;;;;;;5033728;28;20388;-65
2022/10/16 14:56:23;;;;;;;3.83;2.50;;;26.10;92.60;;;;;;5034120;28;20124;-65
2022/10/16 14:59:35;;;;;;;9.70;2.40;;;25.90;92.90;;;;;;5033681;28;20392;-64
2022/10/16 15:02:39;;;;;;;9.88;2.55;;;25.70;93.10;;;;;;5034067;28;20517;-65
2022/10/16 15:05:43;;;;;;;3.85;2.10;;;25.70;93.60;;;;;;5033959;28;20057;-65
2022/10/16 15:08:48;;;;;;;4.07;2.60;;;25.70;93.90;;;;;;5033560;28;20048;-64
2022/10/16 15:11:52;;;;;;;6.95;3.33;;;25.60;94.20;;;;;;5033701;28;20045;-65
2022/10/16 15:14:55;;;;;;;8.18;3.47;;;25.50;95.10;;;;;;5033323;28;20392;-64
2022/10/16 15:18:01;;;;;;;8.02;4.00;;;25.40;95.20;;;;;;5033736;28;20480;-65
2022/10/16 15:21:05;;;;;;;7.40;2.72;;;25.30;95.20;;;;;;5021406;28;20052;-65
2022/10/16 15:24:12;;;;;;;5.90;2.97;;;25.20;95.60;;;;;;5033715;28;20491;-65
2022/10/16 15:27:17;;;;;;;6.30;3.40;;;25.00;95.90;;;;;;5033418;28;20036;-64
2022/10/16 15:30:21;;;;;;;7.93;3.05;;;24.80;96.50;;;;;;5033203;28;20041;-65
2022/10/16 15:33:32;;;;;;;7.57;3.35;;;24.50;97.20;;;;;;5032824;28;20516;-64
2022/10/16 15:36:38;;;;;;;9.70;3.08;;;24.40;97.40;;;;;;5033227;28;20040;-64
2022/10/16 15:39:42;;;;;;;6.38;3.30;;;24.20;97.80;;;;;;5032866;28;20052;-64
2022/10/16 15:42:46;;;;;;;8.20;3.28;;;24.00;98.40;;;;;;5033173;28;20048;-65
2022/10/16 15:46:00;;;;;;;5.57;2.85;;;23.70;98.90;;;;;;5033196;28;20052;-65
2022/10/16 15:49:04;;;;;;;8.63;3.03;;;23.50;99.40;;;;;;5033110;28;20048;-64
2022/10/16 15:52:08;;;;;;;11.77;5.65;;;23.30;99.90;;;;;;5033018;28;20049;-64
2022/10/16 15:55:14;;;;;;;10.43;6.80;;;23.20;99.90;;;;;;5032886;28;20064;-65
2022/10/16 15:58:18;;;;;;;8.98;3.53;;;23.00;99.90;;;;;;5033520;28;20053;-65
2022/10/16 16:01:22;;;;;;;5.47;3.53;;;22.80;99.90;;;;;;5032663;28;20052;-65
2022/10/16 16:04:29;;;;;;;8.82;3.90;;;22.60;99.90;;;;;;5032568;28;20056;-65
2022/10/16 16:07:34;;;;;;;6.72;4.20;;;22.40;99.90;;;;;;5033059;28;20044;-66
2022/10/16 16:10:38;;;;;;;8.43;4.78;;;22.30;99.90;;;;;;5032608;28;20507;-65